createdAt,value
2023-04-17T00:02:25.597Z,23.52
2023-04-17T00:04:52.502Z,24.10
2023-04-17T00:07:22.563Z,24.83
2023-04-17T00:09:49.069Z,23.42
2023-04-17T00:12:16.019Z,24.90
2023-04-17T00:14:42.403Z,25.35
2023-04-17T00:17:08.744Z,24.02
2023-04-17T00:19:35.118Z,24.60
2023-04-17T00:22:01.634Z,23.88
2023-04-17T00:24:27.964Z,23.88
2023-04-17T00:26:54.396Z,24.67
2023-04-17T00:29:20.717Z,24.50
2023-04-17T00:31:47.437Z,24.73
2023-04-17T00:34:13.994Z,24.67
2023-04-17T00:36:40.388Z,25.63
2023-04-17T00:39:06.727Z,24.35
2023-04-17T00:41:33.066Z,24.42
2023-04-17T00:43:59.394Z,24.83
2023-04-17T00:46:25.919Z,24.42
2023-04-17T00:48:52.543Z,24.90
2023-04-17T00:51:19.010Z,26.52
2023-04-17T00:53:45.831Z,24.25
2023-04-17T00:56:13.012Z,24.60
2023-04-17T00:58:40.550Z,26.63
2023-04-17T01:01:06.973Z,24.80
2023-04-17T01:03:33.868Z,26.27
2023-04-17T01:06:01.402Z,25.15
2023-04-17T01:08:27.983Z,24.65
2023-04-17T01:10:54.338Z,23.42
2023-04-17T01:13:20.775Z,24.00
2023-04-17T01:15:47.244Z,24.27
2023-04-17T01:18:13.659Z,24.02
2023-04-17T01:20:40.090Z,23.98
2023-04-17T01:23:06.447Z,24.98
2023-04-17T01:25:33.144Z,25.40
2023-04-17T01:27:59.522Z,23.67
2023-04-17T01:30:26.137Z,24.55
2023-04-17T01:32:54.331Z,23.90
2023-04-17T01:35:20.969Z,23.23
2023-04-17T01:37:47.467Z,24.83
2023-04-17T01:40:13.816Z,25.50
2023-04-17T01:42:40.290Z,24.17
2023-04-17T01:45:07.328Z,23.77
2023-04-17T01:47:33.754Z,24.60
2023-04-17T01:50:00.626Z,24.13
2023-04-17T01:52:27.038Z,25.27
2023-04-17T01:54:53.355Z,25.60
2023-04-17T01:57:19.724Z,24.88
2023-04-17T01:59:46.117Z,24.48
2023-04-17T02:02:12.610Z,25.17
2023-04-17T02:04:39.045Z,25.17
2023-04-17T02:07:05.516Z,25.42
2023-04-17T02:09:32.201Z,25.25
2023-04-17T02:11:58.651Z,24.92
2023-04-17T02:14:25.010Z,26.17
2023-04-17T02:16:51.324Z,25.75
2023-04-17T02:19:17.662Z,25.85
2023-04-17T02:21:44.001Z,27.30
2023-04-17T02:24:10.651Z,26.27
2023-04-17T02:26:37.066Z,26.75
2023-04-17T02:29:03.465Z,25.13
2023-04-17T02:31:30.008Z,26.10
2023-04-17T02:33:56.374Z,25.77
2023-04-17T02:36:22.739Z,25.83
2023-04-17T02:38:49.051Z,25.65
2023-04-17T02:41:15.448Z,24.42
2023-04-17T02:43:41.944Z,25.33
2023-04-17T02:46:08.368Z,26.30
2023-04-17T02:48:34.699Z,26.00
2023-04-17T02:51:01.182Z,26.90
2023-04-17T02:53:27.503Z,26.88
2023-04-17T02:55:53.841Z,26.60
2023-04-17T02:58:20.167Z,26.35
2023-04-17T03:00:46.667Z,26.52
2023-04-17T03:03:13.237Z,27.42
2023-04-17T03:05:39.881Z,26.17
2023-04-17T03:08:06.598Z,27.10
2023-04-17T03:10:32.933Z,25.75
2023-04-17T03:12:59.295Z,26.58
2023-04-17T03:15:25.661Z,25.73
2023-04-17T03:17:52.172Z,26.83
2023-04-17T03:20:18.769Z,26.77
2023-04-17T03:22:45.157Z,27.27
2023-04-17T03:25:11.546Z,26.45
2023-04-17T03:27:38.748Z,26.98
2023-04-17T03:30:06.130Z,25.20
2023-04-17T03:32:32.854Z,26.77
2023-04-17T03:34:59.536Z,27.42
2023-04-17T03:37:25.896Z,26.40
2023-04-17T03:39:52.217Z,26.73
2023-04-17T03:42:18.781Z,26.70
2023-04-17T03:44:45.233Z,26.75
2023-04-17T03:47:11.614Z,27.13
2023-04-17T03:49:38.009Z,26.90
2023-04-17T03:52:04.449Z,27.65
2023-04-17T03:54:35.208Z,27.73
2023-04-17T03:57:02.972Z,26.52
2023-04-17T03:59:31.276Z,27.67
2023-04-17T04:01:57.992Z,28.08
2023-04-17T04:04:24.976Z,28.10
2023-04-17T04:06:54.404Z,28.05
2023-04-17T04:09:21.265Z,29.65
2023-04-17T04:11:47.719Z,28.85
2023-04-17T04:14:14.577Z,27.38
2023-04-17T04:16:41.307Z,28.92
2023-04-17T04:19:07.665Z,29.08
2023-04-17T04:21:34.414Z,29.25
2023-04-17T04:24:00.886Z,28.75
2023-04-17T04:26:27.241Z,29.02
2023-04-17T04:28:53.594Z,31.05
2023-04-17T04:31:20.287Z,30.65
2023-04-17T04:33:46.774Z,29.10
2023-04-17T04:36:14.015Z,29.58
2023-04-17T04:38:40.347Z,28.52
2023-04-17T04:41:10.134Z,28.88
2023-04-17T04:43:36.925Z,29.92
2023-04-17T04:46:03.983Z,29.73
2023-04-17T04:48:30.482Z,30.83
2023-04-17T04:50:57.008Z,31.05
2023-04-17T04:53:23.429Z,29.05
2023-04-17T04:55:49.884Z,30.50
2023-04-17T04:58:16.335Z,29.50
2023-04-17T05:00:43.546Z,29.10
2023-04-17T05:03:10.158Z,29.83
2023-04-17T05:05:37.598Z,29.10
2023-04-17T05:08:04.146Z,29.05
2023-04-17T05:10:30.855Z,29.73
2023-04-17T05:12:57.367Z,30.10
2023-04-17T05:15:23.691Z,30.73
2023-04-17T05:17:50.191Z,29.75
2023-04-17T05:20:16.739Z,28.67
2023-04-17T05:22:43.161Z,29.30
2023-04-17T05:25:09.664Z,29.95
2023-04-17T05:27:36.057Z,29.70
2023-04-17T05:30:02.498Z,29.15
2023-04-17T05:32:31.173Z,29.65
2023-04-17T05:34:57.536Z,30.48
2023-04-17T05:37:23.902Z,30.52
2023-04-17T05:39:50.558Z,30.90
2023-04-17T05:42:17.407Z,29.48
2023-04-17T05:44:43.753Z,29.85
2023-04-17T05:47:10.144Z,30.23
2023-04-17T05:49:36.564Z,30.88
2023-04-17T05:52:02.888Z,30.20
2023-04-17T05:54:30.221Z,30.83
2023-04-17T05:56:56.819Z,31.58
2023-04-17T05:59:23.194Z,31.08
2023-04-17T06:01:49.530Z,31.15
2023-04-17T06:04:18.061Z,30.63
2023-04-17T06:06:44.933Z,29.50
2023-04-17T06:09:11.905Z,31.10
2023-04-17T06:11:38.672Z,30.63
2023-04-17T06:14:05.351Z,29.48
2023-04-17T06:16:31.781Z,31.08
2023-04-17T06:18:58.260Z,29.08
2023-04-17T06:21:24.707Z,29.33
2023-04-17T06:23:51.962Z,30.02
2023-04-17T06:26:18.369Z,30.08
2023-04-17T06:28:44.871Z,30.75
2023-04-17T06:31:12.070Z,30.55
2023-04-17T06:33:38.514Z,30.08
2023-04-17T06:36:05.165Z,30.48
2023-04-17T06:38:31.599Z,29.60
2023-04-17T06:40:58.009Z,30.85
2023-04-17T06:43:24.584Z,30.17
2023-04-17T06:45:51.082Z,29.73
2023-04-17T06:48:17.507Z,30.52
2023-04-17T06:50:43.891Z,30.52
2023-04-17T06:53:10.396Z,29.38
2023-04-17T06:55:36.757Z,29.58
2023-04-17T06:58:04.058Z,30.05
2023-04-17T07:00:30.488Z,28.63
2023-04-17T07:02:56.938Z,28.42
2023-04-17T07:05:23.373Z,27.50
2023-04-17T07:07:49.751Z,27.42
2023-04-17T07:10:16.461Z,27.25
2023-04-17T07:12:42.859Z,27.10
2023-04-17T07:15:09.668Z,25.92
2023-04-17T07:17:36.043Z,26.55
2023-04-17T07:20:02.868Z,25.95
2023-04-17T07:22:29.241Z,23.77
2023-04-17T07:24:55.626Z,24.58
2023-04-17T07:27:22.031Z,25.33
2023-04-17T07:29:54.192Z,23.63
2023-04-17T07:32:21.970Z,23.65
2023-04-17T07:34:48.672Z,22.55
2023-04-17T07:37:15.664Z,23.55
2023-04-17T07:39:42.334Z,22.23
2023-04-17T07:42:09.109Z,21.63
2023-04-17T07:44:35.540Z,21.52
2023-04-17T07:47:01.969Z,21.33
2023-04-17T07:49:28.391Z,21.75
2023-04-17T07:51:55.931Z,21.27
2023-04-17T07:54:22.328Z,20.00
2023-04-17T07:56:49.366Z,20.45
2023-04-17T07:59:18.807Z,19.73
2023-04-17T08:01:45.218Z,20.08
2023-04-17T08:04:11.979Z,20.25
2023-04-17T08:06:38.962Z,18.70
2023-04-17T08:09:05.458Z,19.20
2023-04-17T08:11:35.686Z,17.95
2023-04-17T08:14:06.523Z,18.20
2023-04-17T08:16:33.440Z,17.83
2023-04-17T08:18:59.840Z,17.33
2023-04-17T08:21:26.773Z,17.23
2023-04-17T08:23:53.139Z,16.65
2023-04-17T08:26:20.476Z,16.60
2023-04-17T08:28:46.989Z,16.48
2023-04-17T08:31:13.919Z,15.77
2023-04-17T08:33:40.345Z,15.32
2023-04-17T08:36:09.656Z,14.85
2023-04-17T08:38:36.433Z,14.35
2023-04-17T08:41:08.018Z,15.05
2023-04-17T08:43:36.063Z,15.00
2023-04-17T08:46:03.448Z,13.80
2023-04-17T08:48:30.645Z,14.10
2023-04-17T08:50:56.999Z,13.80
2023-04-17T08:53:23.366Z,15.93
2023-04-17T08:55:49.796Z,14.65
2023-04-17T08:58:16.433Z,13.38
2023-04-17T09:00:45.131Z,13.45
2023-04-17T09:03:13.375Z,12.75
2023-04-17T09:05:43.273Z,12.85
2023-04-17T09:08:09.666Z,11.77
2023-04-17T09:10:40.447Z,12.20
2023-04-17T09:13:08.370Z,13.25
2023-04-17T09:15:36.143Z,13.77
2023-04-17T09:18:03.629Z,12.65
2023-04-17T09:20:30.273Z,13.82
2023-04-17T09:23:05.200Z,14.35
2023-04-17T09:25:31.833Z,13.38
2023-04-17T09:28:13.858Z,13.20
2023-04-17T09:30:41.207Z,11.90
2023-04-17T09:33:08.846Z,12.55
2023-04-17T09:35:39.907Z,13.05
2023-04-17T09:38:06.685Z,12.23
2023-04-17T09:40:41.662Z,11.93
2023-04-17T09:43:10.432Z,11.63
2023-04-17T09:45:41.416Z,12.15
2023-04-17T09:48:10.270Z,10.95
2023-04-17T09:50:38.632Z,10.85
2023-04-17T09:53:06.554Z,10.90
2023-04-17T09:55:33.536Z,10.48
2023-04-17T09:58:02.840Z,9.45
2023-04-17T10:00:29.786Z,9.90
2023-04-17T10:02:59.053Z,9.63
2023-04-17T10:05:28.774Z,10.23
2023-04-17T10:07:56.195Z,9.57
2023-04-17T10:10:34.086Z,9.93
2023-04-17T10:13:03.396Z,9.65
2023-04-17T10:15:30.508Z,10.10
2023-04-17T10:18:21.636Z,10.43
2023-04-17T10:20:49.191Z,10.73
2023-04-17T10:23:32.569Z,10.55
2023-04-17T10:26:30.012Z,10.52
2023-04-17T10:28:59.545Z,10.27
2023-04-17T10:32:03.949Z,10.48
2023-04-17T10:34:41.756Z,10.38
2023-04-17T10:37:15.033Z,11.35
2023-04-17T10:40:01.805Z,10.32
2023-04-17T10:42:32.942Z,10.10
2023-04-17T10:45:01.588Z,10.73
2023-04-17T10:47:35.287Z,9.95
2023-04-17T10:50:08.778Z,10.10
2023-04-17T10:52:42.560Z,9.82
2023-04-17T10:55:21.965Z,9.50
2023-04-17T10:57:55.493Z,10.07
2023-04-17T11:00:30.292Z,10.43
2023-04-17T11:02:56.975Z,9.25
2023-04-17T11:05:24.155Z,9.52
2023-04-17T11:07:51.557Z,8.95
2023-04-17T11:10:19.939Z,9.15
2023-04-17T11:12:50.017Z,8.98
2023-04-17T11:15:16.666Z,9.30
2023-04-17T11:17:48.025Z,9.60
2023-04-17T11:20:17.405Z,9.20
2023-04-17T11:22:44.709Z,9.80
2023-04-17T11:25:26.087Z,8.90
2023-04-17T11:28:00.476Z,8.63
2023-04-17T11:30:32.424Z,8.70
2023-04-17T11:33:08.734Z,8.73
2023-04-17T11:35:39.968Z,8.80
2023-04-17T11:38:08.633Z,9.15
2023-04-17T11:40:35.312Z,9.30
2023-04-17T11:43:08.387Z,8.27
2023-04-17T11:45:35.830Z,9.00
2023-04-17T11:48:03.540Z,7.97
2023-04-17T11:50:31.836Z,8.00
2023-04-17T11:53:00.759Z,7.65
2023-04-17T11:55:36.366Z,8.05
2023-04-17T11:58:06.277Z,6.93
2023-04-17T12:00:33.301Z,6.32
2023-04-17T12:03:01.799Z,6.55
2023-04-17T12:05:30.659Z,6.25
2023-04-17T12:08:01.845Z,7.15
2023-04-17T12:10:44.756Z,7.03
2023-04-17T12:13:11.831Z,6.80
2023-04-17T12:15:38.986Z,6.78
2023-04-17T12:18:06.202Z,6.25
2023-04-17T12:20:33.908Z,6.22
2023-04-17T12:23:00.772Z,6.82
2023-04-17T12:25:27.704Z,6.22
2023-04-17T12:27:56.457Z,5.63
2023-04-17T12:30:24.221Z,5.90
2023-04-17T12:32:52.073Z,6.95
2023-04-17T12:35:19.570Z,6.13
2023-04-17T12:37:48.560Z,6.38
2023-04-17T12:40:16.780Z,6.32
2023-04-17T12:42:49.324Z,6.15
2023-04-17T12:45:17.000Z,5.72
2023-04-17T12:47:43.950Z,6.28
2023-04-17T12:50:14.231Z,6.45
2023-04-17T12:52:41.441Z,6.75
2023-04-17T12:55:08.863Z,6.60
2023-04-17T12:57:36.574Z,6.75
2023-04-17T13:00:05.994Z,7.22
2023-04-17T13:02:32.847Z,6.65
2023-04-17T13:04:59.317Z,7.20
2023-04-17T13:07:25.698Z,7.28
2023-04-17T13:09:52.164Z,7.43
2023-04-17T13:12:18.486Z,7.93
2023-04-17T13:14:44.916Z,7.10
2023-04-17T13:17:11.407Z,7.78
2023-04-17T13:19:39.870Z,7.40
2023-04-17T13:22:07.015Z,7.00
2023-04-17T13:24:34.818Z,7.57
2023-04-17T13:27:01.488Z,7.28
2023-04-17T13:29:27.906Z,8.00
2023-04-17T13:31:54.406Z,7.05
2023-04-17T13:34:20.823Z,7.75
2023-04-17T13:36:47.507Z,6.93
2023-04-17T13:39:14.932Z,7.55
2023-04-17T13:41:42.588Z,7.80
2023-04-17T13:44:09.751Z,8.50
2023-04-17T13:46:36.451Z,7.93
2023-04-17T13:49:02.988Z,7.40
2023-04-17T13:51:29.416Z,7.72
2023-04-17T13:53:58.621Z,7.88
2023-04-17T13:56:26.606Z,7.13
2023-04-17T13:58:57.540Z,7.32
2023-04-17T14:01:24.118Z,7.15
2023-04-17T14:03:50.750Z,7.15
2023-04-17T14:06:20.135Z,7.50
2023-04-17T14:08:46.556Z,7.32
2023-04-17T14:11:13.366Z,7.40
2023-04-17T14:13:40.246Z,8.35
2023-04-17T14:16:06.942Z,8.77
2023-04-17T14:18:33.450Z,8.30
2023-04-17T14:20:59.889Z,8.25
2023-04-17T14:23:26.229Z,7.82
2023-04-17T14:25:52.848Z,7.82
2023-04-17T14:28:20.875Z,8.35
2023-04-17T14:30:48.121Z,7.13
2023-04-17T14:33:14.586Z,8.07
2023-04-17T14:35:41.249Z,6.97
2023-04-17T14:38:08.052Z,6.50
2023-04-17T14:40:34.414Z,6.28
2023-04-17T14:43:00.809Z,6.43
2023-04-17T14:45:27.272Z,7.05
2023-04-17T14:47:53.776Z,6.75
2023-04-17T14:50:20.294Z,6.63
2023-04-17T14:52:46.871Z,7.00
2023-04-17T14:55:13.484Z,7.28
2023-04-17T14:57:39.931Z,7.30
2023-04-17T15:00:08.162Z,7.78
2023-04-17T15:02:38.580Z,7.97
2023-04-17T15:05:06.206Z,7.50
2023-04-17T15:07:32.754Z,7.47
2023-04-17T15:09:59.380Z,7.32
2023-04-17T15:12:26.136Z,6.65
2023-04-17T15:14:52.596Z,7.50
2023-04-17T15:17:19.238Z,7.30
2023-04-17T15:19:45.641Z,7.10
2023-04-17T15:22:12.061Z,6.78
2023-04-17T15:24:38.546Z,7.03
2023-04-17T15:27:04.918Z,6.22
2023-04-17T15:29:31.283Z,5.97
2023-04-17T15:31:57.759Z,5.97
2023-04-17T15:34:24.909Z,5.82
2023-04-17T15:36:51.447Z,5.88
2023-04-17T15:39:18.003Z,5.75
2023-04-17T15:41:44.450Z,6.18
2023-04-17T15:44:10.900Z,5.80
2023-04-17T15:46:37.332Z,5.13
2023-04-17T15:49:08.353Z,6.15
2023-04-17T15:51:35.721Z,6.00
2023-04-17T15:54:02.163Z,5.78
2023-04-17T15:56:28.586Z,5.38
2023-04-17T15:58:55.128Z,6.20
2023-04-17T16:01:21.497Z,5.60
2023-04-17T16:03:48.158Z,6.45
2023-04-17T16:06:14.700Z,5.88
2023-04-17T16:08:41.077Z,6.20
2023-04-17T16:11:07.480Z,5.63
2023-04-17T16:13:33.845Z,5.95
2023-04-17T16:16:00.315Z,8.18
2023-04-17T16:18:26.786Z,7.97
2023-04-17T16:20:53.151Z,8.70
2023-04-17T16:23:19.651Z,8.95
2023-04-17T16:25:46.045Z,8.50
2023-04-17T16:28:12.427Z,8.50
2023-04-17T16:30:38.933Z,8.30
2023-04-17T16:33:05.372Z,8.13
2023-04-17T16:35:31.703Z,8.02
2023-04-17T16:37:58.345Z,7.50
2023-04-17T16:40:26.506Z,7.50
2023-04-17T16:42:53.327Z,7.28
2023-04-17T16:45:19.891Z,7.32
2023-04-17T16:47:46.281Z,7.53
2023-04-17T16:50:12.790Z,7.25
2023-04-17T16:52:40.688Z,7.38
2023-04-17T16:55:07.915Z,6.63
2023-04-17T16:57:38.023Z,6.90
2023-04-17T17:00:05.384Z,7.30
2023-04-17T17:02:31.890Z,7.13
2023-04-17T17:04:58.253Z,7.10
2023-04-17T17:07:24.715Z,7.20
2023-04-17T17:09:51.063Z,7.00
2023-04-17T17:12:17.491Z,7.68
2023-04-17T17:14:43.982Z,7.30
2023-04-17T17:17:10.500Z,6.38
2023-04-17T17:19:36.853Z,7.28
2023-04-17T17:22:03.253Z,7.38
2023-04-17T17:24:30.869Z,7.47
2023-04-17T17:26:57.243Z,7.25
2023-04-17T17:29:23.657Z,7.10
2023-04-17T17:31:50.084Z,6.82
2023-04-17T17:34:25.999Z,6.78
2023-04-17T17:36:52.840Z,6.50
2023-04-17T17:39:21.018Z,7.43
2023-04-17T17:41:48.034Z,7.60
2023-04-17T17:44:14.906Z,7.43
2023-04-17T17:46:41.603Z,7.53
2023-04-17T17:49:08.146Z,7.05
2023-04-17T17:51:34.517Z,6.78
2023-04-17T17:54:01.005Z,6.72
2023-04-17T17:56:28.421Z,7.03
2023-04-17T17:58:54.820Z,6.65
2023-04-17T18:01:23.355Z,6.45
2023-04-17T18:03:50.183Z,6.32
2023-04-17T18:06:16.831Z,6.63
2023-04-17T18:08:43.328Z,6.43
2023-04-17T18:11:09.667Z,6.07
2023-04-17T18:13:35.992Z,6.47
2023-04-17T18:16:05.919Z,6.15
2023-04-17T18:18:32.322Z,6.38
2023-04-17T18:20:58.674Z,5.70
2023-04-17T18:23:25.555Z,5.75
2023-04-17T18:26:02.804Z,6.18
2023-04-17T18:28:29.447Z,5.75
2023-04-17T18:30:55.944Z,6.30
2023-04-17T18:33:22.315Z,6.55
2023-04-17T18:35:49.172Z,6.38
2023-04-17T18:38:15.761Z,6.78
2023-04-17T18:40:42.364Z,6.63
2023-04-17T18:43:10.048Z,6.50
2023-04-17T18:45:36.829Z,6.70
2023-04-17T18:48:03.632Z,7.00
2023-04-17T18:50:30.498Z,6.93
2023-04-17T18:52:57.185Z,7.10
2023-04-17T18:55:23.598Z,6.43
2023-04-17T18:57:49.912Z,6.85
2023-04-17T19:00:16.466Z,6.65
2023-04-17T19:02:42.938Z,6.68
2023-04-17T19:05:09.595Z,6.70
2023-04-17T19:07:36.154Z,6.68
2023-04-17T19:10:02.542Z,7.40
2023-04-17T19:12:30.390Z,7.10
2023-04-17T19:15:00.067Z,7.82
2023-04-17T19:17:26.520Z,6.85
2023-04-17T19:19:52.952Z,7.25
2023-04-17T19:22:19.481Z,6.25
2023-04-17T19:24:49.706Z,7.03
2023-04-17T19:27:16.890Z,7.22
2023-04-17T19:29:43.479Z,6.97
2023-04-17T19:32:10.593Z,7.88
2023-04-17T19:34:37.045Z,7.55
2023-04-17T19:37:03.749Z,7.07
2023-04-17T19:39:30.228Z,7.63
2023-04-17T19:41:56.962Z,7.40
2023-04-17T19:44:23.382Z,7.28
2023-04-17T19:46:50.364Z,7.70
2023-04-17T19:49:16.806Z,7.38
2023-04-17T19:51:43.242Z,7.30
2023-04-17T19:54:11.887Z,6.80
2023-04-17T19:56:39.269Z,7.25
2023-04-17T19:59:05.686Z,7.03
2023-04-17T20:01:32.739Z,7.38
2023-04-17T20:03:59.576Z,6.70
2023-04-17T20:06:26.699Z,7.18
2023-04-17T20:08:53.149Z,6.95
2023-04-17T20:11:19.860Z,6.82
2023-04-17T20:13:46.522Z,6.75
2023-04-17T20:16:12.882Z,6.35
2023-04-17T20:18:40.003Z,6.72
2023-04-17T20:21:06.516Z,6.38
2023-04-17T20:23:33.026Z,6.32
2023-04-17T20:25:59.474Z,7.10
2023-04-17T20:28:28.541Z,6.80
2023-04-17T20:30:55.107Z,6.13
2023-04-17T20:33:21.557Z,6.50
2023-04-17T20:35:47.953Z,6.40
2023-04-17T20:38:14.307Z,5.95
2023-04-17T20:40:40.809Z,6.28
2023-04-17T20:43:07.236Z,6.18
2023-04-17T20:45:33.695Z,6.53
2023-04-17T20:48:00.253Z,6.43
2023-04-17T20:50:26.740Z,6.38
2023-04-17T20:52:53.157Z,6.30
2023-04-17T20:55:20.234Z,6.40
2023-04-17T20:57:47.407Z,6.57
2023-04-17T21:00:14.294Z,6.50
2023-04-17T21:02:40.983Z,5.88
2023-04-17T21:05:08.082Z,6.60
2023-04-17T21:07:34.500Z,6.20
2023-04-17T21:10:00.981Z,6.40
2023-04-17T21:12:27.999Z,6.47
2023-04-17T21:14:54.444Z,6.40
2023-04-17T21:17:20.943Z,6.93
2023-04-17T21:19:47.501Z,7.07
2023-04-17T21:22:13.982Z,7.35
2023-04-17T21:24:40.607Z,7.20
2023-04-17T21:27:07.068Z,7.22
2023-04-17T21:29:33.509Z,7.45
2023-04-17T21:32:00.038Z,7.07
2023-04-17T21:34:26.770Z,7.85
2023-04-17T21:36:54.249Z,6.65
2023-04-17T21:39:21.722Z,6.95
2023-04-17T21:41:48.237Z,6.97
2023-04-17T21:44:15.139Z,7.05
2023-04-17T21:46:43.844Z,8.02
2023-04-17T21:49:10.390Z,6.72
2023-04-17T21:51:36.765Z,7.50
2023-04-17T21:54:03.450Z,7.57
2023-04-17T21:56:30.026Z,6.95
2023-04-17T21:58:56.426Z,6.68
2023-04-17T22:01:22.811Z,7.05
2023-04-17T22:03:49.219Z,7.22
2023-04-17T22:06:15.684Z,6.80
2023-04-17T22:08:42.082Z,7.07
2023-04-17T22:11:08.618Z,7.38
2023-04-17T22:13:35.053Z,7.03
2023-04-17T22:16:02.319Z,6.97
2023-04-17T22:18:28.949Z,6.47
2023-04-17T22:20:55.449Z,6.43
2023-04-17T22:23:21.928Z,6.78
2023-04-17T22:25:48.334Z,6.25
2023-04-17T22:28:14.833Z,5.57
2023-04-17T22:30:41.262Z,5.78
2023-04-17T22:33:07.640Z,6.10
2023-04-17T22:35:33.982Z,6.05
2023-04-17T22:38:00.361Z,6.18
2023-04-17T22:40:26.735Z,6.35
2023-04-17T22:42:53.163Z,5.68
2023-04-17T22:45:19.624Z,6.13
2023-04-17T22:47:46.050Z,5.40
2023-04-17T22:50:13.818Z,5.28
2023-04-17T22:52:40.338Z,5.35
2023-04-17T22:55:07.096Z,5.40
2023-04-17T22:57:33.422Z,5.43
2023-04-17T22:59:59.857Z,5.75
2023-04-17T23:02:26.460Z,4.78
2023-04-17T23:04:52.936Z,5.15
2023-04-17T23:07:19.368Z,4.90
2023-04-17T23:09:46.391Z,4.80
2023-04-17T23:12:12.846Z,4.80
2023-04-17T23:14:39.292Z,5.00
2023-04-17T23:17:06.516Z,4.28
2023-04-17T23:19:32.973Z,4.32
2023-04-17T23:22:01.072Z,4.80
2023-04-17T23:24:27.872Z,4.60
2023-04-17T23:26:55.061Z,4.72
2023-04-17T23:29:21.467Z,5.10
2023-04-17T23:31:48.584Z,4.70
2023-04-17T23:34:15.255Z,5.00
2023-04-17T23:36:41.816Z,4.88
2023-04-17T23:39:08.229Z,4.85
2023-04-17T23:41:35.490Z,4.93
2023-04-17T23:44:03.763Z,4.35
2023-04-17T23:46:30.785Z,4.43
2023-04-17T23:48:57.450Z,4.70
2023-04-17T23:51:23.842Z,4.57
2023-04-17T23:53:50.604Z,4.55
2023-04-17T23:56:18.066Z,4.97
2023-04-17T23:58:44.425Z,4.50
